Time;durP1;ratioP1;P1;durP2;ratioP2;P2;SDS_P1;SDS_P2;PMS_P1;PMS_P2;Temp;Humidity;BMP_temperature;BMP_pressure;BME280_temperature;BME280_humidity;BME280_pressure;Samples;Min_cycle;Max_cycle;Signal;HPM_P1;HPM_P2
2021/12/09 00:01:13;;;;;;;12.45;5.10;;;;;;;;;;5030665;28;20024;-73
2021/12/09 00:03:41;;;;;;;15.63;5.32;;;;;;;;;;5035141;28;20024;-73
2021/12/09 00:06:08;;;;;;;7.32;4.60;;;;;;;;;;5017066;28;20090;-72
2021/12/09 00:08:38;;;;;;;14.85;5.75;;;;;;;;;;5032364;28;20036;-73
2021/12/09 00:11:07;;;;;;;9.93;5.32;;;;;;;;;;5040034;28;20046;-72
2021/12/09 00:13:33;;;;;;;8.23;4.35;;;;;;;;;;5050639;28;20020;-72
2021/12/09 00:15:58;;;;;;;10.35;4.93;;;;;;;;;;5019955;28;20496;-72
2021/12/09 00:18:27;;;;;;;15.50;5.30;;;;;;;;;;5023519;28;20115;-73
2021/12/09 00:20:54;;;;;;;10.52;4.43;;;;;;;;;;5036302;28;20119;-72
2021/12/09 00:23:20;;;;;;;8.50;5.03;;;;;;;;;;5020845;28;20029;-72
2021/12/09 00:25:50;;;;;;;12.93;5.28;;;;;;;;;;5048633;28;20020;-72
2021/12/09 00:28:18;;;;;;;9.10;4.85;;;;;;;;;;5026410;28;20053;-71
2021/12/09 00:30:46;;;;;;;12.15;4.85;;;;;;;;;;5032511;28;20173;-72
2021/12/09 00:33:14;;;;;;;12.20;4.93;;;;;;;;;;5021185;28;20549;-73
2021/12/09 00:36:16;;;;;;;9.57;4.53;;;;;;;;;;5007239;28;20116;-72
2021/12/09 00:38:37;;;;;;;6.88;3.85;;;;;;;;;;5031054;28;20036;-73
2021/12/09 00:41:07;;;;;;;15.23;4.93;;;;;;;;;;5020716;28;21092;-74
2021/12/09 00:43:33;;;;;;;11.50;5.40;;;;;;;;;;5034830;28;20032;-72
2021/12/09 00:46:03;;;;;;;9.38;4.97;;;;;;;;;;5020096;28;20123;-71
2021/12/09 00:48:31;;;;;;;9.38;4.60;;;;;;;;;;5034836;28;20063;-73
2021/12/09 00:50:57;;;;;;;11.63;5.57;;;;;;;;;;5046844;28;20028;-74
2021/12/09 00:53:25;;;;;;;14.73;5.07;;;;;;;;;;5046700;28;20112;-71
2021/12/09 00:55:53;;;;;;;13.43;5.57;;;;;;;;;;5031770;28;20133;-73
2021/12/09 00:58:21;;;;;;;9.65;5.07;;;;;;;;;;5020970;28;20123;-73
2021/12/09 01:00:50;;;;;;;11.35;5.88;;;;;;;;;;5031904;28;20028;-72
2021/12/09 01:03:18;;;;;;;12.57;5.32;;;;;;;;;;5032943;28;20013;-73
2021/12/09 01:05:44;;;;;;;13.10;5.65;;;;;;;;;;5030386;28;20147;-72
2021/12/09 01:08:10;;;;;;;14.27;6.18;;;;;;;;;;5034221;28;20063;-70
2021/12/09 01:10:35;;;;;;;13.90;6.85;;;;;;;;;;5029181;28;21735;-71
2021/12/09 01:13:03;;;;;;;14.32;5.32;;;;;;;;;;5018536;28;20304;-71
2021/12/09 01:15:31;;;;;;;11.13;5.68;;;;;;;;;;5038725;28;20047;-73
2021/12/09 01:17:59;;;;;;;9.63;5.68;;;;;;;;;;5048272;28;20036;-73
2021/12/09 01:20:27;;;;;;;14.15;6.22;;;;;;;;;;5017026;28;20037;-72
2021/12/09 01:22:58;;;;;;;16.52;6.32;;;;;;;;;;5031165;28;20028;-70
2021/12/09 01:25:25;;;;;;;13.57;6.40;;;;;;;;;;5033526;28;20025;-72
2021/12/09 01:27:57;;;;;;;16.25;7.15;;;;;;;;;;5033126;28;20029;-72
2021/12/09 01:30:23;;;;;;;14.10;7.15;;;;;;;;;;5035164;28;20041;-71
2021/12/09 01:32:54;;;;;;;18.05;6.78;;;;;;;;;;5034633;28;20033;-71
2021/12/09 01:35:29;;;;;;;16.92;7.57;;;;;;;;;;5025797;28;20126;-72
2021/12/09 01:37:59;;;;;;;20.70;7.50;;;;;;;;;;5038839;28;20664;-70
2021/12/09 01:40:28;;;;;;;14.95;7.13;;;;;;;;;;5037244;28;20037;-69
2021/12/09 01:42:53;;;;;;;16.50;7.15;;;;;;;;;;5035900;28;20611;-70
2021/12/09 01:45:19;;;;;;;16.02;7.10;;;;;;;;;;5034238;28;20064;-71
2021/12/09 01:47:44;;;;;;;13.02;6.95;;;;;;;;;;5035767;28;20035;-70
2021/12/09 01:50:13;;;;;;;16.10;6.38;;;;;;;;;;5036533;28;20720;-72
2021/12/09 01:52:41;;;;;;;13.82;7.22;;;;;;;;;;5034647;28;20024;-70
2021/12/09 01:55:13;;;;;;;18.23;7.88;;;;;;;;;;5035731;28;20029;-72
2021/12/09 01:57:39;;;;;;;18.42;8.40;;;;;;;;;;5043028;28;20310;-71
2021/12/09 02:00:06;;;;;;;16.70;7.63;;;;;;;;;;5034362;28;20879;-71
2021/12/09 02:02:31;;;;;;;20.10;7.25;;;;;;;;;;5023535;28;20135;-72
2021/12/09 02:04:56;;;;;;;19.33;8.45;;;;;;;;;;5047959;28;20024;-70
2021/12/09 02:07:22;;;;;;;22.13;8.77;;;;;;;;;;5022648;28;20037;-73
2021/12/09 02:09:50;;;;;;;17.63;7.78;;;;;;;;;;5019182;28;20032;-71
2021/12/09 02:12:18;;;;;;;19.35;7.00;;;;;;;;;;5033498;28;20050;-71
2021/12/09 02:14:44;;;;;;;16.50;7.53;;;;;;;;;;5047713;28;20484;-72
2021/12/09 02:17:11;;;;;;;19.02;7.32;;;;;;;;;;5033607;28;20460;-71
2021/12/09 02:19:39;;;;;;;13.85;7.43;;;;;;;;;;5037125;28;20025;-72
2021/12/09 02:22:05;;;;;;;19.08;7.47;;;;;;;;;;5014599;28;20033;-70
2021/12/09 02:24:33;;;;;;;24.88;8.30;;;;;;;;;;5037093;28;20078;-71
2021/12/09 02:27:07;;;;;;;15.63;8.23;;;;;;;;;;5018661;28;20160;-71
2021/12/09 02:29:32;;;;;;;22.23;7.75;;;;;;;;;;5033993;28;20047;-71
2021/12/09 02:32:01;;;;;;;23.75;7.60;;;;;;;;;;5019634;28;20037;-71
2021/12/09 02:34:27;;;;;;;14.60;8.13;;;;;;;;;;5033253;28;20120;-70
2021/12/09 02:36:55;;;;;;;21.35;9.63;;;;;;;;;;5034417;28;20024;-71
2021/12/09 02:39:41;;;;;;;22.33;8.80;;;;;;;;;;5027030;28;20036;-71
2021/12/09 02:42:07;;;;;;;17.15;8.73;;;;;;;;;;5030356;28;20123;-72
2021/12/09 02:44:37;;;;;;;19.77;8.50;;;;;;;;;;5034926;28;20032;-71
2021/12/09 02:47:10;;;;;;;15.48;7.90;;;;;;;;;;5018008;28;20144;-70
2021/12/09 02:49:40;;;;;;;18.40;8.05;;;;;;;;;;5035819;28;20032;-70
2021/12/09 02:52:06;;;;;;;11.75;7.30;;;;;;;;;;5036079;28;20055;-70
2021/12/09 02:54:35;;;;;;;20.08;8.68;;;;;;;;;;5037166;28;20036;-70
2021/12/09 02:57:04;;;;;;;21.63;9.02;;;;;;;;;;5040414;28;20044;-71
2021/12/09 02:59:31;;;;;;;17.23;8.18;;;;;;;;;;5036500;28;20056;-70
2021/12/09 03:01:57;;;;;;;21.52;8.52;;;;;;;;;;5049358;28;20033;-71
2021/12/09 03:04:29;;;;;;;16.08;8.32;;;;;;;;;;5027438;28;20026;-71
2021/12/09 03:06:56;;;;;;;14.35;7.43;;;;;;;;;;5034873;28;20032;-71
2021/12/09 03:09:28;;;;;;;23.15;8.55;;;;;;;;;;5019449;28;20024;-71
2021/12/09 03:11:55;;;;;;;24.00;9.52;;;;;;;;;;5019572;28;20040;-69
2021/12/09 03:14:23;;;;;;;24.23;9.07;;;;;;;;;;5034754;28;20532;-71
2021/12/09 03:16:52;;;;;;;28.23;9.27;;;;;;;;;;5032643;28;20987;-70
2021/12/09 03:19:17;;;;;;;18.52;8.57;;;;;;;;;;5038408;28;20099;-70
2021/12/09 03:21:47;;;;;;;21.60;9.20;;;;;;;;;;5035577;28;20060;-71
2021/12/09 03:24:14;;;;;;;16.85;8.98;;;;;;;;;;5034817;28;20059;-69
2021/12/09 03:26:47;;;;;;;18.45;8.35;;;;;;;;;;5035138;28;20041;-69
2021/12/09 03:29:16;;;;;;;23.55;8.82;;;;;;;;;;5040765;28;20157;-71
2021/12/09 03:31:42;;;;;;;18.63;8.85;;;;;;;;;;5032641;28;20033;-70
2021/12/09 03:34:10;;;;;;;16.48;9.25;;;;;;;;;;5023603;28;20127;-70
2021/12/09 03:36:39;;;;;;;17.42;8.48;;;;;;;;;;5022209;28;20112;-70
2021/12/09 03:39:09;;;;;;;19.27;9.77;;;;;;;;;;5027401;28;20025;-69
2021/12/09 03:41:41;;;;;;;20.55;8.68;;;;;;;;;;5051571;28;20029;-69
2021/12/09 03:44:11;;;;;;;22.42;9.50;;;;;;;;;;5039249;28;20025;-70
2021/12/09 03:46:39;;;;;;;24.02;10.18;;;;;;;;;;5036080;28;20676;-70
2021/12/09 03:49:10;;;;;;;27.08;9.45;;;;;;;;;;5037177;28;20025;-71
2021/12/09 03:51:38;;;;;;;17.42;7.40;;;;;;;;;;5035201;28;20086;-70
2021/12/09 03:54:07;;;;;;;23.33;10.05;;;;;;;;;;5026182;28;20403;-70
2021/12/09 03:56:35;;;;;;;17.23;9.02;;;;;;;;;;5036489;28;20470;-69
2021/12/09 03:59:04;;;;;;;18.55;10.10;;;;;;;;;;5036514;28;20039;-69
2021/12/09 04:01:36;;;;;;;18.92;9.43;;;;;;;;;;5021451;28;20025;-70
2021/12/09 04:04:07;;;;;;;28.20;10.13;;;;;;;;;;5032667;28;20029;-70
2021/12/09 04:06:33;;;;;;;20.42;9.23;;;;;;;;;;5032428;28;20032;-70
2021/12/09 04:09:00;;;;;;;19.85;9.25;;;;;;;;;;5032571;28;20028;-70
2021/12/09 04:11:33;;;;;;;19.13;9.10;;;;;;;;;;5032667;28;20054;-69
2021/12/09 04:13:59;;;;;;;19.25;9.18;;;;;;;;;;5033222;28;20456;-68
2021/12/09 04:16:24;;;;;;;20.13;9.75;;;;;;;;;;5030458;28;20029;-70
2021/12/09 04:18:49;;;;;;;17.73;8.98;;;;;;;;;;5036673;28;20040;-70
2021/12/09 04:21:18;;;;;;;23.92;9.98;;;;;;;;;;5032196;28;20036;-70
2021/12/09 04:23:45;;;;;;;23.95;10.73;;;;;;;;;;5022641;28;20033;-69
2021/12/09 04:26:11;;;;;;;16.80;10.05;;;;;;;;;;5034631;28;20657;-70
2021/12/09 04:28:40;;;;;;;18.58;9.38;;;;;;;;;;5024837;28;20027;-69
2021/12/09 04:31:08;;;;;;;17.95;9.57;;;;;;;;;;5034109;28;20029;-70
2021/12/09 04:33:41;;;;;;;19.63;8.98;;;;;;;;;;5038223;28;20511;-70
2021/12/09 04:36:07;;;;;;;24.23;9.13;;;;;;;;;;5032597;28;20691;-69
2021/12/09 04:38:40;;;;;;;17.42;8.68;;;;;;;;;;5020173;28;20025;-70
2021/12/09 04:41:08;;;;;;;24.27;10.35;;;;;;;;;;5034148;28;20530;-70
2021/12/09 04:43:40;;;;;;;24.65;9.80;;;;;;;;;;5023858;28;20029;-69
2021/12/09 04:46:11;;;;;;;30.67;11.38;;;;;;;;;;5017156;28;20032;-70
2021/12/09 04:48:37;;;;;;;26.88;9.73;;;;;;;;;;5034555;28;20140;-70
2021/12/09 04:51:04;;;;;;;25.33;11.23;;;;;;;;;;5030276;28;20164;-69
2021/12/09 04:53:30;;;;;;;21.73;9.82;;;;;;;;;;5028716;28;20035;-68
2021/12/09 04:55:58;;;;;;;21.13;9.95;;;;;;;;;;5034384;28;20041;-69
2021/12/09 04:58:27;;;;;;;33.85;10.30;;;;;;;;;;5030499;28;20516;-68
2021/12/09 05:00:54;;;;;;;21.05;10.07;;;;;;;;;;5030035;28;20033;-68
2021/12/09 05:03:22;;;;;;;19.52;9.63;;;;;;;;;;5033223;28;20401;-69
2021/12/09 05:05:49;;;;;;;25.95;10.80;;;;;;;;;;5018407;28;20056;-68
2021/12/09 05:08:19;;;;;;;18.17;9.95;;;;;;;;;;5033955;28;20055;-69
2021/12/09 05:11:03;;;;;;;24.35;10.48;;;;;;;;;;5030036;28;20095;-69
2021/12/09 05:13:32;;;;;;;26.08;9.48;;;;;;;;;;5051400;28;20164;-69
2021/12/09 05:15:59;;;;;;;19.35;11.05;;;;;;;;;;5032485;28;20016;-69
2021/12/09 05:18:31;;;;;;;19.35;9.80;;;;;;;;;;5033017;28;20025;-69
2021/12/09 05:20:59;;;;;;;19.15;10.10;;;;;;;;;;5038678;28;20155;-69
2021/12/09 05:23:28;;;;;;;23.10;9.48;;;;;;;;;;5032700;28;20027;-69
2021/12/09 05:25:53;;;;;;;24.02;11.10;;;;;;;;;;5018079;28;20039;-69
2021/12/09 05:28:30;;;;;;;20.98;9.73;;;;;;;;;;5031980;28;20669;-70
2021/12/09 05:33:45;;;;;;;25.15;10.60;;;;;;;;;;5033843;28;20578;-69
2021/12/09 05:36:12;;;;;;;23.08;10.27;;;;;;;;;;5035127;28;20037;-70
2021/12/09 05:38:41;;;;;;;17.52;9.75;;;;;;;;;;5043673;28;20710;-70
2021/12/09 05:41:06;;;;;;;22.70;8.85;;;;;;;;;;5021204;28;20052;-69
2021/12/09 05:43:33;;;;;;;23.42;9.57;;;;;;;;;;5034242;28;20058;-69
2021/12/09 05:46:00;;;;;;;24.80;10.50;;;;;;;;;;5034002;28;20060;-69
2021/12/09 05:48:26;;;;;;;30.63;13.85;;;;;;;;;;5033876;28;20025;-71
2021/12/09 05:50:56;;;;;;;22.42;10.45;;;;;;;;;;5036497;28;20087;-70
2021/12/09 05:53:27;;;;;;;25.48;9.65;;;;;;;;;;5042801;28;20431;-69
2021/12/09 05:55:57;;;;;;;30.63;10.73;;;;;;;;;;5030728;28;20029;-68
2021/12/09 05:58:23;;;;;;;26.15;11.63;;;;;;;;;;5030506;28;20044;-66
2021/12/09 06:00:50;;;;;;;23.02;9.27;;;;;;;;;;5031868;28;20037;-67
2021/12/09 06:03:19;;;;;;;22.88;10.50;;;;;;;;;;5038002;28;20111;-69
2021/12/09 06:05:44;;;;;;;21.70;10.73;;;;;;;;;;5030093;28;20031;-68
2021/12/09 06:08:10;;;;;;;21.02;11.00;;;;;;;;;;5032934;28;20037;-67
2021/12/09 06:10:37;;;;;;;18.27;9.10;;;;;;;;;;5022457;28;20040;-67
2021/12/09 06:13:07;;;;;;;32.97;10.82;;;;;;;;;;5034403;28;20041;-68
2021/12/09 06:15:37;;;;;;;21.50;11.20;;;;;;;;;;5048235;28;20029;-67
2021/12/09 06:18:03;;;;;;;32.65;13.50;;;;;;;;;;5032694;28;20478;-69
2021/12/09 06:20:32;;;;;;;31.75;14.25;;;;;;;;;;5034318;28;20063;-68
2021/12/09 06:23:00;;;;;;;25.10;10.32;;;;;;;;;;5055502;28;22078;-70
2021/12/09 06:25:28;;;;;;;28.95;11.68;;;;;;;;;;5020920;28;20032;-68
2021/12/09 06:27:56;;;;;;;26.63;9.70;;;;;;;;;;5010853;28;20079;-68
2021/12/09 06:30:23;;;;;;;25.25;8.63;;;;;;;;;;5015669;28;20112;-68
2021/12/09 06:32:49;;;;;;;21.10;9.88;;;;;;;;;;5039457;28;21760;-69
2021/12/09 06:35:18;;;;;;;25.67;10.10;;;;;;;;;;5027455;28;20036;-69
2021/12/09 06:37:47;;;;;;;21.23;9.43;;;;;;;;;;5034924;28;21934;-69
2021/12/09 06:40:17;;;;;;;29.35;10.07;;;;;;;;;;5036674;28;20020;-69
2021/12/09 06:42:43;;;;;;;28.50;11.65;;;;;;;;;;5033730;28;20029;-68
2021/12/09 06:45:10;;;;;;;25.35;10.57;;;;;;;;;;5036962;28;20024;-69
2021/12/09 06:47:39;;;;;;;22.58;10.50;;;;;;;;;;5035873;28;20053;-69
2021/12/09 06:50:07;;;;;;;16.92;9.40;;;;;;;;;;5039706;28;20025;-68
2021/12/09 06:52:33;;;;;;;28.15;10.40;;;;;;;;;;5052895;28;20057;-69
2021/12/09 06:55:01;;;;;;;22.42;9.73;;;;;;;;;;5038073;28;20151;-68
2021/12/09 06:57:27;;;;;;;19.85;9.43;;;;;;;;;;5038744;28;20119;-68
2021/12/09 06:59:56;;;;;;;26.75;10.23;;;;;;;;;;5038989;28;20532;-70
2021/12/09 07:02:24;;;;;;;27.00;10.10;;;;;;;;;;5053094;28;20133;-69
2021/12/09 07:04:52;;;;;;;23.55;10.75;;;;;;;;;;5037143;28;20024;-69
2021/12/09 07:07:23;;;;;;;23.13;11.27;;;;;;;;;;5053011;28;20148;-71
2021/12/09 07:09:57;;;;;;;24.67;10.77;;;;;;;;;;5037778;28;20572;-70
2021/12/09 07:12:24;;;;;;;20.77;10.20;;;;;;;;;;5036663;28;20444;-69
2021/12/09 07:14:50;;;;;;;19.73;9.23;;;;;;;;;;5039625;28;20031;-70
2021/12/09 07:17:20;;;;;;;24.67;10.70;;;;;;;;;;5034293;28;20036;-69
2021/12/09 07:19:48;;;;;;;20.10;11.20;;;;;;;;;;5020530;28;20033;-70
2021/12/09 07:22:15;;;;;;;21.50;10.07;;;;;;;;;;5045043;28;20358;-68
2021/12/09 07:24:46;;;;;;;21.85;10.25;;;;;;;;;;5034453;28;20025;-70
2021/12/09 07:27:11;;;;;;;37.65;11.80;;;;;;;;;;5035723;28;20040;-69
2021/12/09 07:29:36;;;;;;;28.38;10.63;;;;;;;;;;5037597;28;20400;-68
2021/12/09 07:32:04;;;;;;;30.35;10.95;;;;;;;;;;5032735;28;20036;-67
2021/12/09 07:34:32;;;;;;;28.58;10.82;;;;;;;;;;5035758;28;20150;-69
2021/12/09 07:37:03;;;;;;;24.77;10.43;;;;;;;;;;5036592;28;20078;-69
2021/12/09 07:39:32;;;;;;;26.23;9.68;;;;;;;;;;5035024;28;20057;-68
2021/12/09 07:41:59;;;;;;;29.50;10.68;;;;;;;;;;5050122;28;20933;-69
2021/12/09 07:44:29;;;;;;;22.67;9.98;;;;;;;;;;5035816;28;20039;-69
2021/12/09 07:46:54;;;;;;;23.90;9.65;;;;;;;;;;5033185;28;20090;-68
2021/12/09 07:49:23;;;;;;;18.80;9.80;;;;;;;;;;5035345;28;20064;-68
2021/12/09 07:51:49;;;;;;;22.45;10.30;;;;;;;;;;5037259;28;20055;-69
2021/12/09 07:54:18;;;;;;;25.77;9.68;;;;;;;;;;5035087;28;20050;-70
2021/12/09 07:56:43;;;;;;;20.20;10.18;;;;;;;;;;5036174;28;20423;-69
2021/12/09 07:59:11;;;;;;;19.85;8.55;;;;;;;;;;5036494;28;20032;-69
2021/12/09 08:01:41;;;;;;;15.43;8.25;;;;;;;;;;5024601;28;20025;-69
2021/12/09 08:04:07;;;;;;;24.27;9.45;;;;;;;;;;5036667;28;20033;-69
2021/12/09 08:06:35;;;;;;;20.73;8.52;;;;;;;;;;5003146;28;20062;-72
2021/12/09 08:09:04;;;;;;;18.95;9.75;;;;;;;;;;5034136;28;20112;-70
2021/12/09 08:11:30;;;;;;;24.33;9.93;;;;;;;;;;5034574;28;20029;-71
2021/12/09 08:13:58;;;;;;;20.98;8.35;;;;;;;;;;5035070;28;20032;-68
2021/12/09 08:16:24;;;;;;;17.23;8.13;;;;;;;;;;5034041;28;20056;-69
2021/12/09 08:18:58;;;;;;;23.55;9.88;;;;;;;;;;5019676;28;20055;-69
2021/12/09 08:21:28;;;;;;;18.67;8.75;;;;;;;;;;5032672;28;20028;-69
2021/12/09 08:23:54;;;;;;;16.83;8.30;;;;;;;;;;5035338;28;20064;-69
2021/12/09 08:26:20;;;;;;;16.63;8.68;;;;;;;;;;5033331;28;20161;-68
2021/12/09 08:28:45;;;;;;;31.35;8.20;;;;;;;;;;5033788;28;20040;-68
2021/12/09 08:31:14;;;;;;;18.65;8.82;;;;;;;;;;5032718;28;20037;-69
2021/12/09 08:33:42;;;;;;;21.90;9.10;;;;;;;;;;5035637;28;20044;-67
2021/12/09 08:36:10;;;;;;;18.50;9.18;;;;;;;;;;5035037;28;20041;-68
2021/12/09 08:38:35;;;;;;;15.05;7.60;;;;;;;;;;5020234;28;20064;-70
2021/12/09 08:41:03;;;;;;;20.70;7.95;;;;;;;;;;5020190;28;20119;-67
2021/12/09 08:43:28;;;;;;;22.90;8.20;;;;;;;;;;5033516;28;20040;-68
2021/12/09 08:45:57;;;;;;;15.55;7.47;;;;;;;;;;5033171;28;20090;-68
2021/12/09 08:48:23;;;;;;;19.80;8.40;;;;;;;;;;5034318;28;20041;-68
2021/12/09 08:50:51;;;;;;;16.73;8.25;;;;;;;;;;5049695;28;20115;-67
2021/12/09 08:53:22;;;;;;;24.40;8.57;;;;;;;;;;5034172;28;20329;-66
2021/12/09 08:55:48;;;;;;;14.68;7.35;;;;;;;;;;5034110;28;20042;-66
2021/12/09 08:58:15;;;;;;;18.65;8.65;;;;;;;;;;5032642;28;20124;-66
2021/12/09 09:00:44;;;;;;;17.63;8.13;;;;;;;;;;5029380;28;20575;-66
2021/12/09 09:03:10;;;;;;;21.10;7.40;;;;;;;;;;5031381;28;20060;-67
2021/12/09 09:05:36;;;;;;;16.55;7.03;;;;;;;;;;5026840;28;20190;-68
2021/12/09 09:08:03;;;;;;;18.88;7.60;;;;;;;;;;5031331;28;20140;-64
2021/12/09 09:10:34;;;;;;;15.30;7.05;;;;;;;;;;5048335;28;20391;-65
2021/12/09 09:13:00;;;;;;;12.40;6.85;;;;;;;;;;5038604;28;20073;-67
2021/12/09 09:15:32;;;;;;;18.15;7.95;;;;;;;;;;5033680;28;20652;-67
2021/12/09 09:18:01;;;;;;;14.10;7.18;;;;;;;;;;5049007;28;20045;-65
2021/12/09 09:20:37;;;;;;;17.88;7.10;;;;;;;;;;5034085;28;20178;-64
2021/12/09 09:23:03;;;;;;;15.35;6.75;;;;;;;;;;5020157;28;20047;-66
2021/12/09 09:25:31;;;;;;;20.00;7.47;;;;;;;;;;5033107;28;20112;-64
2021/12/09 09:28:05;;;;;;;15.65;6.75;;;;;;;;;;5034185;28;20029;-66
2021/12/09 09:30:38;;;;;;;14.57;7.15;;;;;;;;;;5036712;28;20051;-65
2021/12/09 09:33:10;;;;;;;12.63;5.97;;;;;;;;;;5026346;28;20492;-65
2021/12/09 09:35:46;;;;;;;16.65;6.45;;;;;;;;;;5034592;28;20048;-66
2021/12/09 09:38:17;;;;;;;13.35;5.93;;;;;;;;;;5031570;28;20115;-65
2021/12/09 09:40:52;;;;;;;12.80;5.70;;;;;;;;;;5039960;28;20112;-64
2021/12/09 09:43:43;;;;;;;10.50;6.68;;;;;;;;;;5034490;28;20191;-64
2021/12/09 09:46:10;;;;;;;16.88;5.68;;;;;;;;;;5043720;28;21985;-67
2021/12/09 09:48:36;;;;;;;20.25;6.00;;;;;;;;;;5035449;28;20042;-67
2021/12/09 09:51:05;;;;;;;13.63;5.70;;;;;;;;;;5028894;28;20036;-64
2021/12/09 09:53:31;;;;;;;16.92;5.75;;;;;;;;;;5032607;28;20181;-65
2021/12/09 09:55:58;;;;;;;11.23;6.03;;;;;;;;;;5030680;28;20230;-65
2021/12/09 09:58:26;;;;;;;11.50;6.80;;;;;;;;;;5039846;28;20049;-65
2021/12/09 10:00:53;;;;;;;13.93;5.63;;;;;;;;;;5034220;28;20184;-67
2021/12/09 10:03:29;;;;;;;15.02;5.75;;;;;;;;;;5034195;28;20131;-64
2021/12/09 10:06:02;;;;;;;12.82;5.30;;;;;;;;;;5034008;28;20037;-65
2021/12/09 10:08:30;;;;;;;14.85;6.45;;;;;;;;;;5035369;28;20044;-66
2021/12/09 10:11:01;;;;;;;17.67;5.20;;;;;;;;;;5039047;28;20036;-65
2021/12/09 10:13:30;;;;;;;10.57;4.97;;;;;;;;;;5022241;28;20074;-64
2021/12/09 10:15:57;;;;;;;15.02;6.03;;;;;;;;;;5033305;28;20410;-65
2021/12/09 10:18:34;;;;;;;16.08;5.57;;;;;;;;;;5033463;28;20154;-66
2021/12/09 10:21:05;;;;;;;18.15;5.55;;;;;;;;;;5028912;28;20038;-65
2021/12/09 10:23:34;;;;;;;12.95;5.07;;;;;;;;;;5029144;28;20035;-62
2021/12/09 10:26:14;;;;;;;13.18;5.30;;;;;;;;;;5031790;28;20025;-65
2021/12/09 10:28:44;;;;;;;8.95;4.90;;;;;;;;;;5034903;28;20159;-65
2021/12/09 10:31:14;;;;;;;12.10;4.97;;;;;;;;;;5031151;28;20024;-64
2021/12/09 10:34:13;;;;;;;13.73;5.38;;;;;;;;;;5018933;28;20050;-66
2021/12/09 10:36:46;;;;;;;9.30;5.00;;;;;;;;;;5036726;28;20333;-66
2021/12/09 10:39:17;;;;;;;17.73;5.18;;;;;;;;;;5033030;28;20055;-66
2021/12/09 10:41:46;;;;;;;11.00;5.10;;;;;;;;;;5033790;28;20774;-65
2021/12/09 10:44:12;;;;;;;15.18;5.20;;;;;;;;;;5036328;28;20296;-65
2021/12/09 10:46:57;;;;;;;10.95;5.30;;;;;;;;;;5037583;28;20029;-66
2021/12/09 10:49:25;;;;;;;13.95;4.32;;;;;;;;;;5035689;28;21846;-66
2021/12/09 10:52:00;;;;;;;14.80;5.00;;;;;;;;;;5024223;28;20071;-64
2021/12/09 10:54:29;;;;;;;11.07;4.88;;;;;;;;;;5017440;28;20068;-68
2021/12/09 10:57:21;;;;;;;10.02;4.22;;;;;;;;;;5048831;28;20028;-69
2021/12/09 10:59:47;;;;;;;19.42;5.10;;;;;;;;;;5037307;28;20029;-67
2021/12/09 11:02:15;;;;;;;11.20;4.43;;;;;;;;;;5022160;28;20236;-68
2021/12/09 11:05:04;;;;;;;12.25;5.13;;;;;;;;;;5036876;28;20029;-69
2021/12/09 11:07:31;;;;;;;14.20;4.97;;;;;;;;;;5041193;28;20028;-68
2021/12/09 11:10:17;;;;;;;9.65;4.70;;;;;;;;;;5039520;28;20111;-69
2021/12/09 11:12:53;;;;;;;12.95;5.55;;;;;;;;;;5021061;28;20032;-69
2021/12/09 11:15:22;;;;;;;11.07;5.13;;;;;;;;;;5036596;28;20028;-69
2021/12/09 11:17:50;;;;;;;13.77;4.88;;;;;;;;;;5034749;28;20029;-69
2021/12/09 11:20:35;;;;;;;14.65;6.10;;;;;;;;;;5037060;28;20040;-68
2021/12/09 11:23:00;;;;;;;24.08;5.90;;;;;;;;;;5035357;28;20070;-65
2021/12/09 11:25:31;;;;;;;17.27;5.82;;;;;;;;;;5036082;28;20040;-69
2021/12/09 11:28:10;;;;;;;18.88;5.60;;;;;;;;;;5038044;28;20033;-69
2021/12/09 11:31:01;;;;;;;13.75;5.80;;;;;;;;;;5034631;28;20088;-68
2021/12/09 11:33:39;;;;;;;9.38;5.30;;;;;;;;;;5037146;28;20028;-68
2021/12/09 11:36:07;;;;;;;14.60;5.55;;;;;;;;;;5034517;28;20032;-65
2021/12/09 11:38:46;;;;;;;11.10;4.97;;;;;;;;;;5037723;28;20475;-67
2021/12/09 11:41:34;;;;;;;17.30;5.53;;;;;;;;;;5024640;28;20025;-68
2021/12/09 11:44:08;;;;;;;20.67;6.25;;;;;;;;;;5037431;28;20036;-69
2021/12/09 11:46:33;;;;;;;16.13;5.57;;;;;;;;;;5038275;28;20480;-67
2021/12/09 11:49:04;;;;;;;16.35;5.88;;;;;;;;;;5034114;28;20048;-69
2021/12/09 11:51:32;;;;;;;19.80;6.32;;;;;;;;;;5034734;28;20033;-66
2021/12/09 11:54:01;;;;;;;12.77;5.60;;;;;;;;;;5036636;28;20519;-68
2021/12/09 12:13:42;;;;;;;17.70;7.60;;;;;;;;;;5036402;28;20086;-70
2021/12/09 12:16:34;;;;;;;15.05;6.70;;;;;;;;;;5035418;28;20119;-69
2021/12/09 12:19:15;;;;;;;18.63;6.72;;;;;;;;;;5036485;28;20114;-69
2021/12/09 12:27:39;;;;;;;20.08;7.65;;;;;;;;;;5033383;28;20040;-69
2021/12/09 12:33:05;;;;;;;15.93;7.60;;;;;;;;;;5037531;28;20080;-70
2021/12/09 12:40:58;;;;;;;15.52;6.65;;;;;;;;;;5034652;28;20544;-70
2021/12/09 12:43:50;;;;;;;23.77;7.75;;;;;;;;;;5038793;28;20020;-70
2021/12/09 12:47:08;;;;;;;20.45;7.15;;;;;;;;;;5018996;28;20496;-69
2021/12/09 12:49:46;;;;;;;16.40;6.80;;;;;;;;;;5037277;28;20036;-69
2021/12/09 12:52:21;;;;;;;15.00;6.40;;;;;;;;;;5022243;28;20036;-70
2021/12/09 12:55:02;;;;;;;16.73;6.97;;;;;;;;;;5024469;28;20037;-70
2021/12/09 12:57:32;;;;;;;16.02;7.10;;;;;;;;;;5032985;28;20078;-70
2021/12/09 13:00:12;;;;;;;16.23;7.38;;;;;;;;;;5035914;28;20123;-70
2021/12/09 13:10:44;;;;;;;17.33;6.90;;;;;;;;;;5037971;28;20036;-71
2021/12/09 13:16:02;;;;;;;19.27;8.15;;;;;;;;;;5033381;28;20047;-68
2021/12/09 13:21:35;;;;;;;20.20;8.57;;;;;;;;;;5031418;28;20040;-70
2021/12/09 13:24:21;;;;;;;22.88;7.40;;;;;;;;;;5036949;28;20044;-71
2021/12/09 13:27:07;;;;;;;16.40;7.47;;;;;;;;;;5037382;28;20107;-70
2021/12/09 13:29:50;;;;;;;18.00;7.95;;;;;;;;;;5038269;28;20032;-70
2021/12/09 13:32:45;;;;;;;21.42;8.48;;;;;;;;;;5038294;28;20036;-69
2021/12/09 13:35:28;;;;;;;16.45;7.38;;;;;;;;;;5039590;28;20028;-69
2021/12/09 13:46:32;;;;;;;22.52;9.05;;;;;;;;;;5035602;28;20029;-70
2021/12/09 13:49:53;;;;;;;15.93;8.10;;;;;;;;;;5038393;28;20112;-71
2021/12/09 13:54:02;;;;;;;23.77;9.00;;;;;;;;;;5032456;28;20701;-72
2021/12/09 13:54:55;;;;;;;24.73;8.07;;;;;;;;;;5038239;28;20009;-72
2021/12/09 13:57:52;;;;;;;21.33;8.53;;;;;;;;;;5034921;28;20029;-71
2021/12/09 14:00:30;;;;;;;16.75;8.27;;;;;;;;;;5035974;28;20671;-71
2021/12/09 14:03:15;;;;;;;23.25;10.07;;;;;;;;;;5022690;28;20048;-70
2021/12/09 14:05:50;;;;;;;18.27;8.40;;;;;;;;;;5029223;28;20511;-68
2021/12/09 14:08:34;;;;;;;27.65;9.32;;;;;;;;;;5021478;28;20718;-69
2021/12/09 14:11:08;;;;;;;30.58;9.18;;;;;;;;;;5032746;28;20047;-71
2021/12/09 14:13:41;;;;;;;30.10;9.23;;;;;;;;;;5039269;28;20056;-71
2021/12/09 14:16:58;;;;;;;30.02;9.40;;;;;;;;;;5055914;28;20016;-72
2021/12/09 14:21:39;;;;;;;21.58;9.05;;;;;;;;;;5034748;28;20029;-71
2021/12/09 14:24:08;;;;;;;26.48;10.05;;;;;;;;;;5039570;28;20033;-70
2021/12/09 14:26:36;;;;;;;28.00;9.55;;;;;;;;;;5036049;28;20032;-70
2021/12/09 14:29:06;;;;;;;28.33;10.13;;;;;;;;;;5034352;28;20036;-68
2021/12/09 14:31:59;;;;;;;22.08;9.10;;;;;;;;;;5033572;28;20044;-70
2021/12/09 14:34:28;;;;;;;23.42;9.77;;;;;;;;;;5033724;28;20052;-70
2021/12/09 14:37:01;;;;;;;19.58;9.63;;;;;;;;;;5039876;28;20492;-70
2021/12/09 14:39:26;;;;;;;24.83;10.40;;;;;;;;;;5033309;28;20074;-71
2021/12/09 14:42:13;;;;;;;25.58;11.68;;;;;;;;;;5035825;28;20028;-69
2021/12/09 14:44:55;;;;;;;26.42;11.18;;;;;;;;;;5035226;28;20039;-72
2021/12/09 14:47:21;;;;;;;24.52;10.32;;;;;;;;;;5033451;28;20045;-72
2021/12/09 14:49:51;;;;;;;31.83;11.10;;;;;;;;;;5031111;28;20024;-70
2021/12/09 14:52:29;;;;;;;25.50;10.85;;;;;;;;;;5033887;28;20670;-71
2021/12/09 14:55:20;;;;;;;32.63;10.55;;;;;;;;;;5033577;28;20041;-71
2021/12/09 14:57:57;;;;;;;38.85;11.32;;;;;;;;;;5039006;28;20090;-70
2021/12/09 15:00:33;;;;;;;24.65;10.50;;;;;;;;;;5038066;28;20043;-70
2021/12/09 15:03:02;;;;;;;26.98;10.52;;;;;;;;;;5035381;28;20546;-70
2021/12/09 15:05:29;;;;;;;34.70;10.65;;;;;;;;;;5034988;28;20028;-70
2021/12/09 15:08:05;;;;;;;20.38;11.00;;;;;;;;;;5033348;28;20045;-71
2021/12/09 15:10:38;;;;;;;22.88;11.55;;;;;;;;;;5030303;28;20373;-71
2021/12/09 15:13:06;;;;;;;21.90;10.45;;;;;;;;;;5046536;28;20044;-71
2021/12/09 15:15:35;;;;;;;24.52;11.10;;;;;;;;;;5029681;28;20119;-70
2021/12/09 15:18:03;;;;;;;32.80;12.25;;;;;;;;;;5040275;28;20048;-70
2021/12/09 15:20:34;;;;;;;35.22;12.00;;;;;;;;;;5034579;28;20028;-70
2021/12/09 15:23:16;;;;;;;31.13;11.57;;;;;;;;;;5030642;28;20025;-69
2021/12/09 15:25:47;;;;;;;33.13;11.93;;;;;;;;;;5033849;28;20044;-73
2021/12/09 15:28:15;;;;;;;36.42;13.20;;;;;;;;;;5050903;28;20177;-71
2021/12/09 15:30:55;;;;;;;28.05;12.70;;;;;;;;;;5034212;28;20032;-68
2021/12/09 15:33:34;;;;;;;35.40;12.55;;;;;;;;;;5033456;28;20033;-69
2021/12/09 15:36:08;;;;;;;28.85;12.45;;;;;;;;;;5034046;28;20067;-71
2021/12/09 15:38:35;;;;;;;31.55;12.35;;;;;;;;;;5031132;28;20143;-72
2021/12/09 15:41:04;;;;;;;40.53;12.60;;;;;;;;;;5033115;28;20207;-71
2021/12/09 15:43:32;;;;;;;28.25;12.30;;;;;;;;;;5036017;28;20032;-71
2021/12/09 15:46:06;;;;;;;31.77;12.60;;;;;;;;;;5031589;28;20141;-72
2021/12/09 15:48:36;;;;;;;25.40;11.73;;;;;;;;;;5032786;28;20039;-70